Time;durP1;ratioP1;P1;durP2;ratioP2;P2;SDS_P1;SDS_P2;PMS_P1;PMS_P2;Temp;Humidity;BMP_temperature;BMP_pressure;BME280_temperature;BME280_humidity;BME280_pressure;Samples;Min_cycle;Max_cycle;Signal;HPM_P1;HPM_P2
2023/11/10 00:03:41;;;;;;;18.20;11.80;;;;;;;7.64;78.44;98028.71;226736;1275;22551;-81
2023/11/10 00:08:48;;;;;;;17.70;12.00;;;;;;;7.53;78.83;98026.27;226767;1275;22559;-81
2023/11/10 00:13:53;;;;;;;18.30;12.10;;;;;;;7.45;78.63;98023.17;226862;1275;22560;-81
2023/11/10 00:19:24;;;;;;;20.50;12.00;;;;;;;7.39;78.73;98019.29;226793;1275;22547;-80
2023/11/10 00:24:26;;;;;;;22.40;12.70;;;;;;;7.33;78.73;98013.56;226912;1272;22553;-81
2023/11/10 00:29:29;;;;;;;20.50;12.50;;;;;;;7.26;78.74;98017.96;226853;1275;22536;-81
2023/11/10 00:34:41;;;;;;;19.30;11.80;;;;;;;7.18;78.69;98017.31;226600;1273;24245;-81
2023/11/10 00:39:44;;;;;;;19.50;12.70;;;;;;;7.07;78.82;98007.25;226738;1275;22565;-81
2023/11/10 00:44:56;;;;;;;21.10;13.80;;;;;;;6.96;78.99;98011.05;226498;1275;22550;-81
2023/11/10 00:49:59;;;;;;;22.00;13.90;;;;;;;6.87;78.92;98007.56;226658;1276;22543;-80
2023/11/10 00:55:06;;;;;;;21.80;13.00;;;;;;;6.78;79.24;98009.23;226810;1275;22576;-81
2023/11/10 01:00:11;;;;;;;20.00;12.60;;;;;;;6.64;79.42;98003.14;226798;1269;22561;-80
2023/11/10 01:05:34;;;;;;;19.00;12.40;;;;;;;6.55;79.50;98002.84;226639;1276;22640;-81
2023/11/10 01:10:40;;;;;;;21.30;13.60;;;;;;;6.46;79.87;97999.41;226886;1272;22524;-81
2023/11/10 01:15:45;;;;;;;21.70;13.20;;;;;;;6.38;79.92;97993.33;226787;1276;23063;-80
2023/11/10 01:20:49;;;;;;;20.40;12.40;;;;;;;6.32;80.28;97987.36;226762;1275;22544;-81
2023/11/10 01:25:52;;;;;;;22.40;13.50;;;;;;;6.24;80.32;97986.39;226741;1275;22611;-81
2023/11/10 01:30:54;;;;;;;23.40;13.00;;;;;;;6.20;80.40;97978.22;226630;1275;22725;-81
2023/11/10 01:36:00;;;;;;;20.70;13.70;;;;;;;6.18;80.65;97966.70;226713;1275;22540;-81
2023/11/10 01:41:03;;;;;;;26.10;13.40;;;;;;;6.20;80.89;97961.89;226723;1275;22537;-80
2023/11/10 01:46:06;;;;;;;28.40;15.80;;;;;;;6.21;80.84;97953.71;226692;1276;190030;-81
2023/11/10 01:51:09;;;;;;;28.20;16.70;;;;;;;6.19;80.96;97946.66;226733;1276;22544;-81
2023/11/10 01:56:12;;;;;;;24.50;15.00;;;;;;;6.17;80.51;97946.05;226628;1275;22540;-80
2023/11/10 02:01:20;;;;;;;26.20;16.20;;;;;;;6.18;81.06;97938.20;226554;1276;22527;-80
2023/11/10 02:06:32;;;;;;;26.40;16.70;;;;;;;6.24;81.23;97940.07;226566;1275;22551;-81
2023/11/10 02:11:40;;;;;;;29.70;18.00;;;;;;;6.32;81.18;97937.23;226708;1273;22544;-80
2023/11/10 02:16:44;;;;;;;29.60;18.10;;;;;;;6.35;81.16;97939.61;226674;1268;22540;-80
2023/11/10 02:21:46;;;;;;;27.60;19.00;;;;;;;6.35;81.03;97937.20;226769;1275;22540;-80
2023/11/10 02:26:49;;;;;;;39.10;24.20;;;;;;;6.31;80.67;97940.98;226851;1275;22552;-80
2023/11/10 02:31:55;;;;;;;41.30;25.70;;;;;;;6.25;80.63;97939.76;226779;1271;22547;-80
2023/11/10 02:36:58;;;;;;;39.80;23.90;;;;;;;6.18;80.84;97935.91;226902;1272;22582;-81
2023/11/10 02:42:04;;;;;;;35.80;23.70;;;;;;;6.12;80.95;97931.94;226884;1253;25401;-80
2023/11/10 02:47:10;;;;;;;29.60;20.30;;;;;;;6.10;81.19;97930.58;226739;1275;22670;-80
2023/11/10 02:52:12;;;;;;;31.40;19.70;;;;;;;6.09;81.15;97922.84;226857;1272;22546;-80
2023/11/10 02:57:15;;;;;;;30.90;19.40;;;;;;;6.07;81.21;97912.48;226749;1275;24254;-80
2023/11/10 03:02:22;;;;;;;25.00;16.20;;;;;;;6.04;81.47;97913.00;226669;1275;24167;-80
2023/11/10 03:07:24;;;;;;;21.90;13.80;;;;;;;6.03;81.53;97909.95;226735;1275;22557;-80
2023/11/10 03:12:29;;;;;;;17.60;11.70;;;;;;;6.06;81.97;97902.30;226582;1270;25104;-79
2023/11/10 03:17:33;;;;;;;19.10;12.60;;;;;;;6.15;82.53;97904.80;226593;1275;22539;-80
2023/11/10 03:22:39;;;;;;;18.80;11.90;;;;;;;6.28;82.62;97898.55;226720;1253;22495;-81
2023/11/10 03:27:52;;;;;;;17.90;10.90;;;;;;;6.42;82.58;97884.48;226775;1275;22605;-80
2023/11/10 03:32:55;;;;;;;16.20;10.30;;;;;;;6.52;82.23;97877.45;226627;1275;22551;-80
2023/11/10 03:37:58;;;;;;;16.70;10.90;;;;;;;6.56;82.36;97872.27;226693;1275;22548;-79
2023/11/10 03:43:01;;;;;;;15.10;10.40;;;;;;;6.55;82.33;97869.85;226556;1275;22540;-79
2023/11/10 03:48:04;;;;;;;14.70;10.30;;;;;;;6.53;82.13;97864.95;226686;1275;24222;-79
2023/11/10 03:53:11;;;;;;;12.50;9.10;;;;;;;6.50;82.27;97863.39;226722;1275;22537;-80
2023/11/10 03:58:16;;;;;;;16.70;9.60;;;;;;;6.51;82.61;97862.52;226612;1275;24215;-79
2023/11/10 04:03:22;;;;;;;14.90;10.40;;;;;;;6.52;82.55;97855.42;226712;1275;22652;-79
2023/11/10 04:08:25;;;;;;;14.40;10.40;;;;;;;6.51;82.62;97851.77;226800;1272;22537;-80
2023/11/10 04:13:28;;;;;;;15.80;11.30;;;;;;;6.49;82.82;97847.68;226584;1275;23626;-80
2023/11/10 04:18:31;;;;;;;17.60;11.30;;;;;;;6.52;82.84;97849.36;226611;1275;22585;-81
2023/11/10 04:23:45;;;;;;;18.60;12.60;;;;;;;6.50;82.72;97836.23;226542;1275;22580;-81
2023/11/10 04:28:48;;;;;;;19.50;13.00;;;;;;;6.45;82.31;97837.04;226326;1275;24213;-81
2023/11/10 04:33:53;;;;;;;20.90;12.20;;;;;;;6.39;82.92;97832.70;226778;1275;22628;-81
2023/11/10 04:38:55;;;;;;;17.90;12.40;;;;;;;6.32;82.82;97831.98;226737;1274;22646;-81
2023/11/10 04:44:02;;;;;;;18.20;12.40;;;;;;;6.25;83.22;97831.33;226830;1272;22545;-81
2023/11/10 04:49:13;;;;;;;21.10;14.80;;;;;;;6.19;82.91;97827.55;226568;1276;22539;-81
2023/11/10 04:54:17;;;;;;;23.00;15.90;;;;;;;6.13;83.29;97819.00;226700;1275;22544;-80
2023/11/10 04:59:19;;;;;;;20.80;15.20;;;;;;;6.10;83.22;97813.14;226834;1276;22553;-81
2023/11/10 05:04:22;;;;;;;26.00;17.80;;;;;;;6.08;83.58;97813.38;226592;1275;22537;-80
2023/11/10 05:09:25;;;;;;;25.30;16.90;;;;;;;6.08;83.65;97815.67;226675;1276;22578;-81
2023/11/10 05:14:39;;;;;;;22.20;16.00;;;;;;;6.08;83.62;97810.19;226822;1275;22544;-81
2023/11/10 05:19:48;;;;;;;21.10;14.20;;;;;;;6.10;83.54;97801.92;226564;1275;22551;-81
2023/11/10 05:24:52;;;;;;;21.80;14.80;;;;;;;6.14;83.53;97802.50;226661;1275;22557;-81
2023/11/10 05:29:56;;;;;;;20.50;14.80;;;;;;;6.18;83.60;97806.20;226582;1270;22536;-81
2023/11/10 05:34:59;;;;;;;16.40;12.40;;;;;;;6.21;83.86;97802.48;226821;1272;22580;-81
2023/11/10 05:40:03;;;;;;;17.50;13.60;;;;;;;6.24;83.63;97799.27;226730;1275;22578;-81
2023/11/10 05:45:09;;;;;;;25.60;17.50;;;;;;;6.23;83.08;97797.98;226564;1276;22536;-80
2023/11/10 05:50:14;;;;;;;27.60;19.00;;;;;;;6.09;82.58;97811.13;226744;1276;22547;-80
2023/11/10 05:55:28;;;;;;;24.50;17.80;;;;;;;5.98;83.01;97824.09;226761;1276;22658;-80
2023/11/10 06:00:34;;;;;;;26.30;18.40;;;;;;;5.91;83.21;97829.98;226800;1276;22571;-79
2023/11/10 06:05:46;;;;;;;29.30;19.00;;;;;;;5.85;83.03;97829.30;226773;1274;22532;-81
2023/11/10 06:10:59;;;;;;;29.30;19.40;;;;;;;5.80;83.44;97830.11;226817;1275;22563;-80
2023/11/10 06:16:06;;;;;;;26.00;18.60;;;;;;;5.77;83.21;97832.04;226802;1272;22542;-81
2023/11/10 06:21:11;;;;;;;27.40;20.20;;;;;;;5.77;83.46;97844.93;226818;1273;22524;-80
2023/11/10 06:26:18;;;;;;;25.40;18.20;;;;;;;5.78;83.54;97846.23;226722;1275;22629;-81
2023/11/10 06:31:25;;;;;;;27.20;19.60;;;;;;;5.82;83.99;97847.48;226803;1275;22531;-81
2023/11/10 06:36:27;;;;;;;25.30;18.90;;;;;;;5.90;84.26;97847.51;226723;1275;22540;-81
2023/11/10 06:41:31;;;;;;;29.20;19.10;;;;;;;5.99;84.31;97850.45;226730;1275;22566;-81
2023/11/10 06:46:34;;;;;;;28.70;19.80;;;;;;;6.08;84.13;97848.07;226805;1275;23109;-81
2023/11/10 06:51:37;;;;;;;27.30;20.40;;;;;;;6.20;84.09;97843.41;226743;1275;22562;-81
2023/11/10 06:56:53;;;;;;;27.40;20.40;;;;;;;6.35;84.32;97840.89;226385;1260;23064;-81
2023/11/10 07:01:59;;;;;;;28.20;19.80;;;;;;;6.51;84.60;97837.97;226482;1257;22494;-80
2023/11/10 07:07:01;;;;;;;40.50;27.10;;;;;;;6.69;84.16;97835.48;226512;1257;22565;-79
2023/11/10 07:12:08;;;;;;;33.00;23.80;;;;;;;6.95;84.27;97834.92;226581;1267;22557;-80
2023/11/10 07:17:15;;;;;;;28.90;20.70;;;;;;;7.21;84.19;97837.45;226366;1267;22548;-78
2023/11/10 07:22:18;;;;;;;24.70;17.40;;;;;;;7.45;84.06;97831.46;226384;1270;22566;-78
2023/11/10 07:27:21;;;;;;;19.80;14.60;;;;;;;7.70;84.59;97829.04;226425;1273;22693;-78
2023/11/10 07:32:29;;;;;;;19.30;12.20;;;;;;;7.90;84.00;97826.96;226332;1257;22611;-78
2023/11/10 07:37:35;;;;;;;18.60;11.80;;;;;;;8.08;83.67;97824.20;226439;1260;24237;-78
2023/11/10 07:42:43;;;;;;;18.20;12.70;;;;;;;8.25;83.63;97828.39;226165;1260;22596;-78
2023/11/10 07:47:48;;;;;;;19.90;11.90;;;;;;;8.35;83.48;97832.70;226197;1251;22534;-79
2023/11/10 07:52:53;;;;;;;19.80;13.20;;;;;;;8.43;83.26;97826.39;225777;1261;22727;-78
2023/11/10 07:57:55;;;;;;;16.80;12.40;;;;;;;8.52;83.00;97826.97;225878;1260;22556;-77
2023/11/10 08:02:59;;;;;;;16.60;12.10;;;;;;;8.64;82.71;97822.62;226477;1267;22553;-78
2023/11/10 08:08:09;;;;;;;18.80;12.60;;;;;;;8.74;82.22;97822.36;226003;1266;22536;-81
2023/11/10 08:13:21;;;;;;;16.90;12.10;;;;;;;8.83;82.17;97825.66;226256;1273;25347;-81
2023/11/10 08:18:24;;;;;;;18.30;12.80;;;;;;;8.92;82.00;97823.48;226055;1267;22540;-79
2023/11/10 08:23:27;;;;;;;20.80;13.40;;;;;;;9.02;82.11;97818.85;226221;1267;22552;-80
2023/11/10 08:28:31;;;;;;;21.80;13.80;;;;;;;9.09;81.58;97818.48;226537;1267;22540;-80
2023/11/10 08:33:34;;;;;;;19.00;14.50;;;;;;;9.13;81.46;97814.84;226496;1270;22684;-82
2023/11/10 08:38:38;;;;;;;19.60;14.90;;;;;;;9.18;81.35;97815.61;226525;1260;22979;-83
2023/11/10 08:43:42;;;;;;;22.30;15.20;;;;;;;9.28;81.43;97820.30;226558;1253;22611;-83
2023/11/10 08:48:47;;;;;;;21.50;14.90;;;;;;;9.37;81.29;97818.67;226486;1267;22586;-82
2023/11/10 08:53:50;;;;;;;22.00;14.70;;;;;;;9.49;81.27;97814.26;226489;1263;22536;-83
2023/11/10 08:58:53;;;;;;;20.60;14.20;;;;;;;9.64;80.83;97811.42;226410;1263;22548;-82
2023/11/10 09:03:56;;;;;;;21.00;15.40;;;;;;;9.81;80.70;97819.42;226626;1267;22545;-83
2023/11/10 09:09:18;;;;;;;20.50;15.10;;;;;;;10.00;80.46;97819.70;226336;1270;22543;-83
2023/11/10 09:14:21;;;;;;;23.30;14.70;;;;;;;10.18;80.20;97816.48;226219;1266;22551;-81
2023/11/10 09:19:24;;;;;;;20.50;12.60;;;;;;;10.35;79.89;97821.10;226658;1273;22541;-82
2023/11/10 09:24:30;;;;;;;18.20;12.70;;;;;;;10.49;79.36;97813.45;226635;1267;22540;-82
2023/11/10 09:29:33;;;;;;;22.50;12.80;;;;;;;10.55;78.91;97807.43;226680;1274;22557;-81
2023/11/10 09:34:40;;;;;;;18.90;13.60;;;;;;;10.57;78.55;97801.36;226552;1275;22585;-82
2023/11/10 09:39:47;;;;;;;17.50;11.70;;;;;;;10.59;78.35;97801.30;226549;1274;22560;-78
2023/11/10 09:45:01;;;;;;;18.50;12.20;;;;;;;10.63;78.50;97793.73;226717;1274;22565;-79
2023/11/10 09:50:07;;;;;;;19.70;12.60;;;;;;;10.73;78.22;97788.67;226343;1273;22618;-79
2023/11/10 09:55:10;;;;;;;17.60;12.40;;;;;;;10.88;78.41;97783.95;226449;1267;22636;-79
2023/11/10 10:00:28;;;;;;;16.90;11.60;;;;;;;11.08;78.22;97776.75;226289;1251;22539;-80
2023/11/10 10:05:34;;;;;;;18.60;10.50;;;;;;;11.27;77.96;97779.80;226675;1267;22545;-79
2023/11/10 10:10:40;;;;;;;13.20;9.40;;;;;;;11.35;77.32;97776.60;226347;1266;22577;-79
2023/11/10 10:15:43;;;;;;;14.20;8.70;;;;;;;11.44;77.33;97771.44;226466;1268;22651;-79
2023/11/10 10:20:46;;;;;;;11.10;7.00;;;;;;;11.56;77.26;97762.23;226267;1270;24768;-79
2023/11/10 10:25:49;;;;;;;10.90;7.00;;;;;;;11.61;76.60;97762.10;226886;1268;23005;-76
2023/11/10 10:30:51;;;;;;;9.50;5.10;;;;;;;11.68;76.56;97749.58;226548;1267;22563;-75
2023/11/10 10:35:54;;;;;;;9.70;5.30;;;;;;;11.73;75.72;97743.58;226359;1275;22547;-76
2023/11/10 10:40:59;;;;;;;7.60;4.40;;;;;;;11.77;75.42;97737.82;226453;1273;22535;-74
2023/11/10 10:46:06;;;;;;;7.10;4.90;;;;;;;11.72;74.89;97730.21;226693;1273;23667;-78
2023/11/10 10:51:13;;;;;;;10.00;5.80;;;;;;;11.68;74.52;97727.77;226479;1275;22553;-78
2023/11/10 10:56:18;;;;;;;8.00;4.80;;;;;;;11.65;74.51;97728.32;226316;1275;22553;-78
2023/11/10 11:01:42;;;;;;;9.20;5.00;;;;;;;11.66;74.19;97727.98;226324;1269;22553;-80
2023/11/10 11:07:38;;;;;;;6.50;5.20;;;;;;;11.65;74.32;97726.49;226590;1274;24231;-81
2023/11/10 11:13:10;;;;;;;8.00;5.40;;;;;;;11.68;74.12;97724.88;226656;1267;22551;-81
2023/11/10 11:18:53;;;;;;;9.30;5.20;;;;;;;11.65;73.55;97727.91;226813;1272;22563;-81
2023/11/10 11:24:00;;;;;;;9.80;5.50;;;;;;;11.57;73.06;97719.63;226847;1267;22528;-80
2023/11/10 11:29:06;;;;;;;9.20;5.90;;;;;;;11.47;72.78;97720.90;226507;1267;25919;-77
2023/11/10 11:34:16;;;;;;;4.80;3.70;;;;;;;11.45;73.12;97720.67;226487;1254;22551;-78
2023/11/10 11:39:21;;;;;;;6.00;3.30;;;;;;;11.41;72.47;97715.61;226240;1269;22633;-78
2023/11/10 11:44:35;;;;;;;4.70;2.70;;;;;;;11.33;71.88;97718.80;226236;1267;24289;-78
2023/11/10 11:49:39;;;;;;;3.30;2.20;;;;;;;11.20;71.88;97719.95;226238;1270;22536;-78
2023/11/10 11:54:42;;;;;;;3.70;2.40;;;;;;;11.01;71.48;97725.54;226505;1275;25333;-80
2023/11/10 11:59:46;;;;;;;3.50;2.30;;;;;;;10.82;72.12;97729.92;226460;1260;22543;-79
2023/11/10 12:04:49;;;;;;;3.50;2.10;;;;;;;10.65;72.76;97731.88;226269;1274;22541;-80
2023/11/10 12:09:52;;;;;;;11.10;3.00;;;;;;;10.50;73.11;97725.59;226536;1270;22590;-78
2023/11/10 12:14:55;;;;;;;4.50;2.80;;;;;;;10.43;73.81;97724.48;226618;1274;22555;-79
2023/11/10 12:19:59;;;;;;;9.20;5.90;;;;;;;10.38;74.31;97718.56;226577;1273;22551;-78
2023/11/10 12:25:04;;;;;;;4.40;2.40;;;;;;;10.25;74.46;97711.90;226501;1272;22557;-81
2023/11/10 12:30:13;;;;;;;7.60;2.50;;;;;;;10.12;75.10;97703.20;226497;1269;22725;-80
2023/11/10 12:35:20;;;;;;;6.40;2.60;;;;;;;10.12;76.02;97693.30;226673;1275;22546;-80
2023/11/10 12:40:25;;;;;;;8.40;4.00;;;;;;;10.21;76.54;97682.84;226679;1267;22571;-78
2023/11/10 12:45:33;;;;;;;5.60;4.30;;;;;;;10.31;76.85;97676.69;226546;1267;22562;-81
2023/11/10 12:50:41;;;;;;;7.80;5.00;;;;;;;10.34;76.91;97677.41;226625;1269;25526;-82
2023/11/10 12:55:44;;;;;;;9.60;5.10;;;;;;;10.36;76.74;97662.54;226207;1275;22617;-79
2023/11/10 13:00:48;;;;;;;10.40;5.10;;;;;;;10.42;76.98;97656.10;226147;1273;22551;-82
2023/11/10 13:05:50;;;;;;;5.60;4.30;;;;;;;10.48;77.21;97651.63;226461;1274;24216;-79
2023/11/10 13:10:56;;;;;;;8.70;5.30;;;;;;;10.46;76.92;97648.60;226166;1275;22703;-79
2023/11/10 13:16:16;;;;;;;15.20;7.50;;;;;;;10.44;77.23;97649.91;226558;1272;22539;-82
2023/11/10 13:21:32;;;;;;;10.30;7.70;;;;;;;10.38;77.47;97647.80;226631;1275;22602;-81
2023/11/10 13:26:35;;;;;;;11.80;8.40;;;;;;;10.28;77.77;97642.86;226562;1273;22621;-82
2023/11/10 13:31:38;;;;;;;11.70;8.20;;;;;;;10.18;78.03;97635.22;226623;1267;22553;-82
2023/11/10 13:36:41;;;;;;;11.60;7.30;;;;;;;10.11;78.40;97630.61;226584;1266;22551;-83
2023/11/10 13:41:45;;;;;;;12.50;9.10;;;;;;;10.04;78.68;97630.34;226545;1251;22576;-82
2023/11/10 13:47:21;;;;;;;12.60;9.10;;;;;;;10.05;79.22;97630.74;226330;1269;200810;-83
2023/11/10 13:52:48;;;;;;;13.40;7.80;;;;;;;10.11;79.40;97626.34;226063;1271;25433;-82
2023/11/10 13:58:33;;;;;;;12.00;8.00;;;;;;;10.13;79.43;97627.73;225277;1273;22569;-81
2023/11/10 14:03:44;;;;;;;11.60;8.70;;;;;;;10.13;79.74;97629.46;225306;1271;22546;-81
2023/11/10 14:08:58;;;;;;;12.50;8.90;;;;;;;10.12;79.79;97626.42;225288;1283;22647;-81
2023/11/10 14:14:45;;;;;;;;;;;;;;;;;;;;;
2023/11/10 14:19:48;;;;;;;8.20;6.20;;;;;;;9.98;79.92;97621.94;226137;1278;25385;-84
2023/11/10 14:24:51;;;;;;;14.40;10.00;;;;;;;9.88;79.73;97620.86;226437;1272;22570;-81
2023/11/10 14:29:54;;;;;;;20.70;14.80;;;;;;;9.77;80.28;97620.40;226698;1267;22549;-81
2023/11/10 14:35:19;;;;;;;16.40;11.10;;;;;;;9.69;80.36;97619.29;226618;1274;22558;-80
2023/11/10 14:40:34;;;;;;;12.70;8.10;;;;;;;9.61;80.71;97614.95;226785;1253;22572;-80
2023/11/10 14:45:38;;;;;;;11.20;8.30;;;;;;;9.50;80.86;97615.60;226852;1272;22542;-81
2023/11/10 14:50:53;;;;;;;10.40;8.40;;;;;;;9.40;81.07;97618.89;226548;1275;22853;-83
2023/11/10 14:55:56;;;;;;;12.30;8.10;;;;;;;9.31;81.10;97617.73;226407;1269;25314;-81
2023/11/10 15:01:01;;;;;;;13.10;9.30;;;;;;;9.21;81.14;97619.80;226330;1274;24209;-77
2023/11/10 15:06:27;;;;;;;16.60;9.70;;;;;;;9.12;81.54;97617.25;226233;1267;26099;-80
2023/11/10 15:11:37;;;;;;;18.20;11.50;;;;;;;9.03;81.61;97612.95;226399;1262;22555;-80
2023/11/10 15:16:45;;;;;;;19.30;12.60;;;;;;;8.99;81.99;97610.77;226354;1257;22558;-81
2023/11/10 15:21:52;;;;;;;17.10;12.60;;;;;;;8.98;82.21;97613.71;226371;1273;22876;-79
2023/11/10 15:26:55;;;;;;;20.30;13.90;;;;;;;8.98;82.26;97608.73;226514;1274;22586;-80
2023/11/10 15:32:04;;;;;;;23.60;16.80;;;;;;;8.96;82.47;97604.23;226766;1274;22602;-81
2023/11/10 15:37:26;;;;;;;21.60;16.00;;;;;;;8.94;82.44;97611.25;226729;1274;22535;-81
2023/11/10 15:42:29;;;;;;;26.10;18.50;;;;;;;8.95;83.01;97611.25;226906;1263;23280;-80
2023/11/10 15:47:31;;;;;;;25.00;19.10;;;;;;;8.98;82.91;97610.92;226948;1274;22583;-81
2023/11/10 15:52:40;;;;;;;28.20;19.10;;;;;;;8.97;82.84;97607.11;227031;1272;22890;-80
2023/11/10 15:58:06;;;;;;;30.10;21.40;;;;;;;8.97;82.96;97603.95;227056;1275;22544;-82
2023/11/10 16:03:10;;;;;;;33.50;22.60;;;;;;;8.96;83.30;97605.52;227109;1269;22541;-82
2023/11/10 16:08:28;;;;;;;31.10;20.90;;;;;;;8.97;83.37;97601.39;226948;1274;22540;-81
2023/11/10 16:13:36;;;;;;;30.70;20.60;;;;;;;8.97;83.58;97607.89;227033;1272;22544;-81
2023/11/10 16:18:42;;;;;;;31.50;20.40;;;;;;;8.95;83.37;97608.01;227071;1272;25549;-81
2023/11/10 16:23:58;;;;;;;29.70;19.90;;;;;;;8.94;83.47;97614.73;226890;1275;22654;-81
2023/11/10 16:29:18;;;;;;;27.80;19.10;;;;;;;8.94;83.33;97613.99;227106;1274;22764;-80
2023/11/10 16:34:21;;;;;;;21.00;15.30;;;;;;;8.94;83.72;97610.64;226869;1274;22560;-80
2023/11/10 16:39:39;;;;;;;19.20;14.80;;;;;;;8.95;83.67;97618.13;227070;1269;22543;-80
2023/11/10 16:44:53;;;;;;;22.10;15.30;;;;;;;8.94;83.69;97619.48;227089;1274;24231;-80
2023/11/10 16:50:00;;;;;;;18.80;14.80;;;;;;;8.95;83.96;97616.23;227040;1274;25926;-80
2023/11/10 16:55:09;;;;;;;19.50;13.20;;;;;;;8.95;83.93;97614.08;227000;1275;24711;-80
2023/11/10 17:00:18;;;;;;;16.30;12.20;;;;;;;8.94;83.86;97614.53;227038;1275;22546;-81
2023/11/10 17:05:31;;;;;;;19.80;14.40;;;;;;;8.88;83.77;97619.95;227014;1272;22534;-80
2023/11/10 17:10:43;;;;;;;18.90;14.60;;;;;;;8.87;84.18;97616.14;227016;1272;22534;-80
2023/11/10 17:15:48;;;;;;;18.60;13.60;;;;;;;8.86;84.01;97613.06;227014;1274;24420;-81
2023/11/10 17:20:54;;;;;;;19.60;15.40;;;;;;;8.89;84.45;97615.41;226794;1274;24219;-80
2023/11/10 17:26:00;;;;;;;19.00;14.00;;;;;;;8.91;84.52;97609.67;227034;1274;22555;-80
2023/11/10 17:31:03;;;;;;;19.40;15.00;;;;;;;8.91;84.29;97608.67;227056;1272;22547;-81
2023/11/10 17:36:08;;;;;;;15.50;13.70;;;;;;;8.90;84.21;97609.97;226889;1273;22536;-80
2023/11/10 17:42:26;;;;;;;19.90;14.10;;;;;;;8.89;84.66;97603.45;226889;1266;24231;-81
2023/11/10 17:47:29;;;;;;;18.60;13.10;;;;;;;8.90;84.76;97597.37;227021;1272;22547;-80
2023/11/10 17:52:34;;;;;;;17.70;13.30;;;;;;;8.90;84.73;97590.09;226883;1273;22795;-79
2023/11/10 17:57:37;;;;;;;17.90;13.50;;;;;;;8.90;85.00;97590.16;226774;1275;22849;-80
2023/11/10 18:02:39;;;;;;;19.00;13.30;;;;;;;8.91;84.90;97592.33;226988;1272;22536;-79
2023/11/10 18:07:45;;;;;;;18.10;14.30;;;;;;;8.90;84.93;97594.21;227059;1269;22547;-79
2023/11/10 18:12:49;;;;;;;18.70;14.80;;;;;;;8.89;84.83;97597.39;226853;1275;22557;-80
2023/11/10 18:17:57;;;;;;;20.70;15.40;;;;;;;8.89;85.12;97596.33;226774;1275;23298;-80
2023/11/10 18:23:00;;;;;;;20.20;15.30;;;;;;;8.90;85.06;97593.52;227022;1275;22545;-79
2023/11/10 18:28:10;;;;;;;21.20;16.20;;;;;;;8.92;85.21;97599.05;226992;1256;22578;-81
2023/11/10 18:33:21;;;;;;;19.20;14.80;;;;;;;8.91;85.25;97595.13;226935;1274;22540;-79
2023/11/10 18:38:26;;;;;;;21.70;16.30;;;;;;;8.91;84.99;97590.27;226908;1274;22530;-79
2023/11/10 18:43:29;;;;;;;23.90;18.50;;;;;;;8.89;85.32;97587.58;226920;1274;22917;-79
2023/11/10 18:49:02;;;;;;;28.20;19.50;;;;;;;8.90;85.51;97586.56;226970;1273;22542;-79
2023/11/10 18:54:07;;;;;;;27.50;20.60;;;;;;;8.92;85.61;97585.64;226918;1272;22540;-80
2023/11/10 18:59:12;;;;;;;26.50;20.50;;;;;;;8.93;85.51;97581.26;226996;1274;22673;-79
2023/11/10 19:04:14;;;;;;;28.40;20.60;;;;;;;8.92;85.41;97582.48;226957;1274;23644;-80
2023/11/10 19:09:20;;;;;;;27.60;21.50;;;;;;;8.91;85.50;97580.75;226903;1274;22844;-80
2023/11/10 19:14:48;;;;;;;26.10;20.80;;;;;;;8.87;85.35;97582.19;226942;1273;22542;-80
2023/11/10 19:19:58;;;;;;;25.40;20.60;;;;;;;8.82;85.48;97580.44;226997;1274;22533;-80
2023/11/10 19:25:04;;;;;;;30.30;22.40;;;;;;;8.80;85.67;97579.88;227035;1274;22567;-80
2023/11/10 19:30:09;;;;;;;31.90;23.40;;;;;;;8.81;85.69;97578.02;227070;1272;22536;-80
2023/11/10 19:35:12;;;;;;;34.90;25.20;;;;;;;8.79;85.77;97576.64;226969;1274;22543;-81
2023/11/10 19:40:15;;;;;;;35.00;27.60;;;;;;;8.81;85.69;97574.17;226866;1275;25886;-80
2023/11/10 19:46:16;;;;;;;35.70;26.80;;;;;;;8.80;85.73;97567.60;227002;1275;24238;-79
2023/11/10 19:51:34;;;;;;;40.80;27.70;;;;;;;8.81;85.94;97564.80;226970;1275;22549;-80
2023/11/10 19:56:40;;;;;;;39.20;27.40;;;;;;;8.79;85.96;97566.88;226864;1274;22564;-79
2023/11/10 20:01:45;;;;;;;42.10;29.90;;;;;;;8.69;85.50;97563.21;226989;1274;22536;-80
2023/11/10 20:06:50;;;;;;;38.20;27.80;;;;;;;8.59;85.60;97564.34;226855;1274;22523;-80
2023/11/10 20:11:53;;;;;;;40.30;28.40;;;;;;;8.51;85.84;97564.50;227003;1272;22545;-80
2023/11/10 20:17:15;;;;;;;42.80;29.40;;;;;;;8.44;86.06;97565.85;226932;1272;22551;-80
2023/11/10 20:22:20;;;;;;;42.50;31.70;;;;;;;8.39;86.11;97565.61;226950;1275;22534;-80
2023/11/10 20:27:42;;;;;;;41.90;32.80;;;;;;;8.39;86.63;97561.80;227038;1272;22535;-80
2023/11/10 20:32:46;;;;;;;46.50;34.50;;;;;;;8.37;86.66;97564.84;226990;1272;22541;-80
2023/11/10 20:37:52;;;;;;;49.50;38.10;;;;;;;8.32;86.59;97564.59;226762;1267;23263;-79
2023/11/10 20:42:57;;;;;;;49.00;36.90;;;;;;;8.34;86.97;97557.73;226791;1275;22583;-80
2023/11/10 20:48:08;;;;;;;50.60;38.20;;;;;;;8.38;87.05;97559.46;226819;1275;22540;-80
2023/11/10 20:53:12;;;;;;;48.10;36.40;;;;;;;8.42;87.40;97559.05;226788;1275;22539;-79
2023/11/10 20:58:15;;;;;;;49.30;37.30;;;;;;;8.41;86.90;97546.50;226921;1275;22536;-80
2023/11/10 21:03:21;;;;;;;53.20;39.10;;;;;;;8.41;86.87;97547.59;226945;1274;22544;-80
2023/11/10 21:08:27;;;;;;;49.10;36.80;;;;;;;8.41;87.05;97539.09;227023;1275;22536;-80
2023/11/10 21:13:30;;;;;;;50.90;37.00;;;;;;;8.38;87.29;97534.63;226931;1275;25233;-79
2023/11/10 21:18:44;;;;;;;54.30;39.80;;;;;;;8.36;87.37;97522.16;226971;1275;22537;-80
2023/11/10 21:23:49;;;;;;;49.20;36.80;;;;;;;8.33;87.07;97521.52;226801;1272;22562;-79
2023/11/10 21:29:10;;;;;;;51.40;36.60;;;;;;;8.31;87.37;97523.65;226960;1275;22550;-81
2023/11/10 21:34:13;;;;;;;54.30;37.10;;;;;;;8.25;86.99;97520.54;226970;1274;22544;-79
2023/11/10 21:39:21;;;;;;;52.20;37.80;;;;;;;8.18;87.56;97511.58;227026;1271;22585;-79
2023/11/10 21:44:25;;;;;;;54.10;39.90;;;;;;;8.19;87.63;97506.11;226993;1272;22662;-79
2023/11/10 21:49:36;;;;;;;55.80;39.60;;;;;;;8.22;87.66;97492.92;226892;1270;22550;-80
2023/11/10 21:54:47;;;;;;;56.90;38.50;;;;;;;8.25;88.02;97486.98;227038;1274;22547;-79
2023/11/10 21:59:56;;;;;;;52.30;38.40;;;;;;;8.23;87.95;97480.98;226974;1266;22539;-80
2023/11/10 22:05:21;;;;;;;52.20;38.80;;;;;;;8.15;87.56;97478.98;225889;1280;22563;-79
2023/11/10 22:10:30;;;;;;;53.60;39.60;;;;;;;8.07;87.65;97479.55;225961;1280;22548;-79
2023/11/10 22:15:42;;;;;;;54.80;40.80;;;;;;;7.98;87.91;97474.42;225902;1280;22546;-80
2023/11/10 22:21:13;;;;;;;59.60;42.60;;;;;;;7.91;88.10;97474.62;226181;1274;22543;-80
2023/11/10 22:26:22;;;;;;;56.80;40.30;;;;;;;7.89;88.27;97470.80;227052;1274;22485;-79
2023/11/10 22:31:25;;;;;;;58.20;41.00;;;;;;;7.87;88.23;97467.14;226980;1272;22539;-79
2023/11/10 22:36:29;;;;;;;59.20;40.30;;;;;;;7.83;88.32;97462.05;226877;1265;22606;-80
2023/11/10 22:41:45;;;;;;;58.50;39.20;;;;;;;7.76;88.66;97452.66;227031;1275;22825;-80
2023/11/10 22:47:08;;;;;;;57.10;39.40;;;;;;;7.72;88.69;97456.83;226959;1274;22542;-80
2023/11/10 22:52:14;;;;;;;54.60;35.80;;;;;;;7.70;88.50;97458.17;227023;1272;22540;-79
2023/11/10 22:57:21;;;;;;;59.10;37.50;;;;;;;7.67;88.81;97456.95;227061;1275;22536;-80
2023/11/10 23:02:29;;;;;;;43.40;30.50;;;;;;;7.67;89.13;97457.36;227012;1257;24193;-79
2023/11/10 23:07:32;;;;;;;41.50;30.30;;;;;;;7.66;88.93;97455.05;226927;1275;22527;-79
2023/11/10 23:12:42;;;;;;;39.30;28.50;;;;;;;7.66;89.18;97447.70;227001;1274;22528;-79
2023/11/10 23:17:47;;;;;;;36.60;26.00;;;;;;;7.65;89.27;97448.34;226957;1275;22550;-79
2023/11/10 23:22:53;;;;;;;36.60;26.10;;;;;;;7.63;89.33;97449.83;226969;1275;25762;-79
2023/11/10 23:28:03;;;;;;;;;;;;;;;7.61;89.05;97449.58;227072;1274;23007;-80
2023/11/10 23:33:33;;;;;;;38.30;25.70;;;;;;;7.58;89.52;97449.62;227020;1272;22557;-80
2023/11/10 23:38:45;;;;;;;38.30;27.00;;;;;;;7.57;89.33;97449.23;226756;1274;22583;-80
2023/11/10 23:44:00;;;;;;;37.70;26.70;;;;;;;7.56;89.51;97439.25;226887;1259;22570;-80